createdAt,value
2022-10-12T00:00:52.090Z,102131.41
2022-10-12T00:03:20.684Z,102127.00
2022-10-12T00:05:51.459Z,102144.63
2022-10-12T00:08:19.434Z,102139.34
2022-10-12T00:10:47.284Z,102134.06
2022-10-12T00:13:16.039Z,102138.47
2022-10-12T00:15:44.026Z,102142.81
2022-10-12T00:18:13.288Z,102145.41
2022-10-12T00:20:41.248Z,102137.50
2022-10-12T00:23:09.177Z,102144.50
2022-10-12T00:25:38.138Z,102141.84
2022-10-12T00:28:06.805Z,102139.19
2022-10-12T00:30:34.822Z,102146.25
2022-10-12T00:33:02.795Z,102143.56
2022-10-12T00:35:32.202Z,102147.94
2022-10-12T00:38:00.248Z,102156.75
2022-10-12T00:40:28.319Z,102148.78
2022-10-12T00:42:56.408Z,102147.03
2022-10-12T00:45:26.171Z,102133.84
2022-10-12T00:47:58.156Z,102145.22
2022-10-12T00:50:30.126Z,102145.22
2022-10-12T00:53:05.161Z,102142.50
2022-10-12T00:55:36.981Z,102150.41
2022-10-12T00:58:08.364Z,102146.06
2022-10-12T01:00:38.760Z,102147.78
2022-10-12T01:03:09.229Z,102139.78
2022-10-12T01:05:40.366Z,102138.84
2022-10-12T01:08:09.975Z,102144.16
2022-10-12T01:10:38.005Z,102138.81
2022-10-12T01:13:06.976Z,102143.13
2022-10-12T01:15:38.232Z,102137.84
2022-10-12T01:18:14.647Z,102138.75
2022-10-12T01:20:49.484Z,102146.59
2022-10-12T01:23:41.628Z,102151.00
2022-10-12T01:26:32.516Z,102137.78
2022-10-12T01:29:14.758Z,102138.63
2022-10-12T01:31:49.615Z,102136.84
2022-10-12T01:34:23.751Z,102135.13
2022-10-12T01:36:58.316Z,102136.81
2022-10-12T01:39:33.665Z,102141.22
2022-10-12T01:42:05.475Z,102139.44
2022-10-12T01:44:33.996Z,102127.06
2022-10-12T01:47:03.408Z,102131.41
2022-10-12T01:49:34.986Z,102131.38
2022-10-12T01:52:19.822Z,102127.91
2022-10-12T01:55:12.587Z,102136.63
2022-10-12T01:57:55.816Z,102133.13
2022-10-12T02:00:24.063Z,102130.50
2022-10-12T02:03:00.581Z,102133.13
2022-10-12T02:05:36.986Z,102119.00
2022-10-12T02:08:10.608Z,102127.78
2022-10-12T02:10:48.679Z,102131.31
2022-10-12T02:13:20.708Z,102120.75
2022-10-12T02:15:49.826Z,102132.13
2022-10-12T02:18:22.788Z,102123.28
2022-10-12T02:20:55.564Z,102113.66
2022-10-12T02:23:25.634Z,102112.75
2022-10-12T02:25:54.888Z,102112.75
2022-10-12T02:28:26.375Z,102117.13
2022-10-12T02:31:00.965Z,102111.84
2022-10-12T02:33:36.510Z,102110.06
2022-10-12T02:36:11.799Z,102103.00
2022-10-12T02:38:44.253Z,102098.56
2022-10-12T02:41:16.229Z,102101.16
2022-10-12T02:43:47.994Z,102095.88
2022-10-12T02:46:19.606Z,102090.59
2022-10-12T02:48:50.612Z,102088.78
2022-10-12T02:51:19.991Z,102094.84
2022-10-12T02:53:48.303Z,102093.97
2022-10-12T02:56:17.360Z,102096.63
2022-10-12T02:58:46.953Z,102095.69
2022-10-12T03:01:17.056Z,102094.81
2022-10-12T03:03:45.928Z,102096.53
2022-10-12T03:06:15.522Z,102096.50
2022-10-12T03:08:43.391Z,102098.13
2022-10-12T03:11:13.993Z,102088.34
2022-10-12T03:13:42.052Z,102082.81
2022-10-12T03:16:12.375Z,102084.56
2022-10-12T03:18:40.556Z,102086.31
2022-10-12T03:21:08.597Z,102085.44
2022-10-12T03:23:38.113Z,102088.13
2022-10-12T03:26:07.012Z,102079.41
2022-10-12T03:28:35.455Z,102084.66
2022-10-12T03:31:03.754Z,102083.84
2022-10-12T03:33:31.741Z,102079.41
2022-10-12T03:35:59.760Z,102074.00
2022-10-12T03:38:27.698Z,102070.53
2022-10-12T03:40:57.393Z,102069.75
2022-10-12T03:43:25.319Z,102070.72
2022-10-12T03:45:54.194Z,102067.16
2022-10-12T03:48:22.333Z,102068.94
2022-10-12T03:50:51.514Z,102062.75
2022-10-12T03:53:21.684Z,102063.63
2022-10-12T03:55:49.951Z,102058.34
2022-10-12T03:58:19.387Z,102051.31
2022-10-12T04:00:47.373Z,102059.13
2022-10-12T04:03:15.367Z,102063.53
2022-10-12T04:05:43.495Z,102067.00
2022-10-12T04:08:11.503Z,102059.88
2022-10-12T04:10:39.496Z,102059.72
2022-10-12T04:13:07.470Z,102060.34
2022-10-12T04:15:38.192Z,102063.81
2022-10-12T04:18:06.408Z,102057.84
2022-10-12T04:20:34.372Z,102059.72
2022-10-12T04:23:02.416Z,102055.34
2022-10-12T04:25:30.536Z,102057.97
2022-10-12T04:27:58.490Z,102060.38
2022-10-12T04:30:26.444Z,102047.97
2022-10-12T04:32:56.643Z,102054.09
2022-10-12T04:35:24.838Z,102047.97
2022-10-12T04:37:52.807Z,102051.44
2022-10-12T04:40:20.779Z,102055.72
2022-10-12T04:42:48.824Z,102052.22
2022-10-12T04:45:16.907Z,102050.56
2022-10-12T04:47:44.826Z,102052.34
2022-10-12T04:50:14.173Z,102057.53
2022-10-12T04:52:42.241Z,102055.00
2022-10-12T04:55:10.565Z,102055.84
2022-10-12T04:57:38.963Z,102061.97
2022-10-12T05:00:08.218Z,102054.00
2022-10-12T05:02:36.496Z,102056.63
2022-10-12T05:05:04.957Z,102061.09
2022-10-12T05:07:34.459Z,102051.44
2022-10-12T05:10:02.550Z,102049.72
2022-10-12T05:12:30.512Z,102048.75
2022-10-12T05:14:58.489Z,102056.66
2022-10-12T05:17:26.353Z,102053.13
2022-10-12T05:19:54.313Z,102055.66
2022-10-12T05:22:22.203Z,102051.25
2022-10-12T05:24:53.885Z,102057.41
2022-10-12T05:27:22.301Z,102054.69
2022-10-12T05:29:50.207Z,102050.34
2022-10-12T05:32:18.357Z,102053.03
2022-10-12T05:34:46.317Z,102052.19
2022-10-12T05:37:14.852Z,102052.84
2022-10-12T05:39:42.922Z,102047.69
2022-10-12T05:42:12.307Z,102047.66
2022-10-12T05:44:40.243Z,102046.88
2022-10-12T05:47:08.226Z,102037.19
2022-10-12T05:49:36.746Z,102043.31
2022-10-12T05:52:04.985Z,102047.75
2022-10-12T05:54:33.348Z,102047.78
2022-10-12T05:57:01.337Z,102035.34
2022-10-12T05:59:34.199Z,102038.88
2022-10-12T06:02:02.657Z,102028.50
2022-10-12T06:04:30.832Z,102032.00
2022-10-12T06:06:59.091Z,102031.22
2022-10-12T06:09:29.074Z,102035.75
2022-10-12T06:11:57.909Z,102040.22
2022-10-12T06:14:26.195Z,102040.28
2022-10-12T06:16:58.346Z,102041.28
2022-10-12T06:19:26.514Z,102036.94
2022-10-12T06:21:54.777Z,102040.47
2022-10-12T06:24:22.874Z,102043.06
2022-10-12T06:26:52.075Z,102044.03
2022-10-12T06:29:23.238Z,102043.31
2022-10-12T06:31:52.039Z,102038.06
2022-10-12T06:34:21.911Z,102036.31
2022-10-12T06:36:50.164Z,102030.22
2022-10-12T06:39:18.126Z,102036.47
2022-10-12T06:41:46.579Z,102031.19
2022-10-12T06:44:15.218Z,102039.19
2022-10-12T06:46:43.163Z,102032.19
2022-10-12T06:49:11.865Z,102040.13
2022-10-12T06:51:41.858Z,102037.56
2022-10-12T06:54:09.815Z,102042.94
2022-10-12T06:56:39.576Z,102047.44
2022-10-12T06:59:07.920Z,102045.81
2022-10-12T07:01:35.816Z,102044.97
2022-10-12T07:04:04.040Z,102049.41
2022-10-12T07:06:32.415Z,102047.66
2022-10-12T07:09:02.294Z,102046.84
2022-10-12T07:11:30.300Z,102039.88
2022-10-12T07:13:59.241Z,102043.53
2022-10-12T07:16:27.173Z,102027.84
2022-10-12T07:18:55.107Z,102027.94
2022-10-12T07:21:23.001Z,102036.75
2022-10-12T07:23:50.988Z,102029.75
2022-10-12T07:26:22.362Z,102039.44
2022-10-12T07:28:50.337Z,102030.63
2022-10-12T07:31:18.482Z,102035.81
2022-10-12T07:33:46.746Z,102034.91
2022-10-12T07:36:20.583Z,102030.72
2022-10-12T07:38:51.546Z,102038.75
2022-10-12T07:41:21.555Z,102044.88
2022-10-12T07:43:56.590Z,102044.19
2022-10-12T07:46:25.367Z,102048.81
2022-10-12T07:48:53.419Z,102045.41
2022-10-12T07:51:21.395Z,102044.59
2022-10-12T07:53:50.708Z,102043.69
2022-10-12T07:56:20.365Z,102041.19
2022-10-12T07:58:53.294Z,102036.81
2022-10-12T08:01:23.301Z,102034.28
2022-10-12T08:03:51.973Z,102041.41
2022-10-12T08:06:21.686Z,102034.41
2022-10-12T08:08:50.061Z,102032.75
2022-10-12T08:11:18.636Z,102039.84
2022-10-12T08:13:48.424Z,102045.19
2022-10-12T08:16:19.517Z,102043.50
2022-10-12T08:18:47.727Z,102048.84
2022-10-12T08:21:17.507Z,102042.69
2022-10-12T08:23:47.546Z,102041.84
2022-10-12T08:26:17.412Z,102045.38
2022-10-12T08:28:45.624Z,102041.94
2022-10-12T08:31:19.443Z,102042.88
2022-10-12T08:33:47.371Z,102045.56
2022-10-12T08:36:15.430Z,102044.72
2022-10-12T08:38:45.497Z,102054.47
2022-10-12T08:41:24.357Z,102046.53
2022-10-12T08:44:14.580Z,102050.94
2022-10-12T08:46:44.071Z,102046.59
2022-10-12T08:49:16.361Z,102045.72
2022-10-12T08:51:48.352Z,102043.97
2022-10-12T08:54:20.279Z,102036.94
2022-10-12T08:56:48.549Z,102043.16
2022-10-12T08:59:20.140Z,102041.41
2022-10-12T09:02:04.925Z,102039.66
2022-10-12T09:04:44.680Z,102037.88
2022-10-12T09:07:17.066Z,102031.69
2022-10-12T09:09:59.288Z,102039.66
2022-10-12T09:12:45.495Z,102030.84
2022-10-12T09:15:18.472Z,102033.50
2022-10-12T09:17:51.186Z,102037.03
2022-10-12T09:20:22.422Z,102043.25
2022-10-12T09:22:52.285Z,102029.09
2022-10-12T09:25:24.796Z,102029.94
2022-10-12T09:27:53.466Z,102022.84
2022-10-12T09:30:22.260Z,102023.69
2022-10-12T09:33:06.107Z,102025.47
2022-10-12T09:35:34.756Z,102014.84
2022-10-12T09:38:03.488Z,102015.72
2022-10-12T09:40:33.358Z,102014.84
2022-10-12T09:43:03.508Z,102016.56
2022-10-12T09:45:36.808Z,102015.66
2022-10-12T09:48:21.088Z,102008.56
2022-10-12T09:50:55.398Z,102012.97
2022-10-12T09:53:27.961Z,102010.25
2022-10-12T09:55:59.816Z,102005.78
2022-10-12T09:58:30.898Z,102011.94
2022-10-12T10:01:29.939Z,102003.91
2022-10-12T10:04:15.749Z,102005.66
2022-10-12T10:06:45.496Z,101996.75
2022-10-12T10:09:31.986Z,102002.91
2022-10-12T10:12:14.781Z,101997.53
2022-10-12T10:14:45.409Z,101995.72
2022-10-12T10:17:17.042Z,101996.59
2022-10-12T10:19:51.638Z,101981.41
2022-10-12T10:22:22.836Z,101984.00
2022-10-12T10:24:55.233Z,101984.88
2022-10-12T10:27:37.836Z,101983.91
2022-10-12T10:30:40.732Z,101982.03
2022-10-12T10:33:16.800Z,101984.44
2022-10-12T10:36:00.794Z,101984.41
2022-10-12T10:38:32.650Z,101979.00
2022-10-12T10:41:03.820Z,101969.19
2022-10-12T10:43:34.079Z,101963.84
2022-10-12T10:46:04.568Z,101964.56
2022-10-12T10:48:39.972Z,101965.47
2022-10-12T10:51:11.720Z,101962.78
2022-10-12T10:53:45.410Z,101959.22
2022-10-12T10:56:21.246Z,101952.81
2022-10-12T10:58:52.328Z,101951.84
2022-10-12T11:01:25.509Z,101956.25
2022-10-12T11:04:00.389Z,101949.91
2022-10-12T11:06:39.501Z,101949.84
2022-10-12T11:09:12.473Z,101948.88
2022-10-12T11:11:43.235Z,101938.13
2022-10-12T11:14:19.811Z,101944.31
2022-10-12T11:16:56.444Z,101939.00
2022-10-12T11:19:32.216Z,101943.50
2022-10-12T11:22:06.486Z,101937.25
2022-10-12T11:24:44.470Z,101936.47
2022-10-12T11:27:19.048Z,101938.25
2022-10-12T11:30:02.790Z,101936.53
2022-10-12T11:32:41.322Z,101935.66
2022-10-12T11:35:20.119Z,101923.97
2022-10-12T11:37:57.003Z,101917.75
2022-10-12T11:40:48.096Z,101914.09
2022-10-12T11:43:22.345Z,101908.75
2022-10-12T11:45:53.690Z,101907.78
2022-10-12T11:48:40.368Z,101904.16
2022-10-12T11:51:08.563Z,101895.22
2022-10-12T11:53:49.068Z,101891.56
2022-10-12T11:56:24.882Z,101893.41
2022-10-12T11:59:01.784Z,101882.69
2022-10-12T12:01:46.662Z,101875.47
2022-10-12T12:04:41.150Z,101873.63
2022-10-12T12:07:42.759Z,101876.22
2022-10-12T12:10:51.903Z,101867.19
2022-10-12T12:13:27.138Z,101862.63
2022-10-12T12:16:27.518Z,101863.47
2022-10-12T12:19:16.171Z,101869.59
2022-10-12T12:22:21.515Z,101865.16
2022-10-12T12:24:56.661Z,101850.94
2022-10-12T12:27:35.532Z,101856.13
2022-10-12T12:30:08.090Z,101861.47
2022-10-12T12:32:46.857Z,101853.53
2022-10-12T12:35:29.805Z,101835.59
2022-10-12T12:38:17.278Z,101839.09
2022-10-12T12:41:11.866Z,101829.34
2022-10-12T12:43:57.232Z,101831.16
2022-10-12T12:46:48.127Z,101833.00
2022-10-12T12:49:28.486Z,101820.31
2022-10-12T12:51:59.822Z,101834.53
2022-10-12T12:54:28.805Z,101823.81
2022-10-12T12:57:28.068Z,101818.34
2022-10-12T13:00:18.417Z,101817.38
2022-10-12T13:03:44.760Z,101818.22
2022-10-12T13:06:48.876Z,101809.31
2022-10-12T13:09:40.599Z,101804.75
2022-10-12T13:12:28.424Z,101806.56
2022-10-12T13:15:08.465Z,101809.19
2022-10-12T13:17:53.535Z,101797.56
2022-10-12T13:20:23.979Z,101801.16
2022-10-12T13:22:55.176Z,101794.91
2022-10-12T13:25:30.858Z,101792.31
2022-10-12T13:28:01.973Z,101794.09
2022-10-12T13:30:36.153Z,101794.84
2022-10-12T13:33:15.364Z,101794.84
2022-10-12T13:35:49.247Z,101786.75
2022-10-12T13:38:22.863Z,101783.97
2022-10-12T13:41:02.612Z,101777.44
2022-10-12T13:43:35.453Z,101761.44
2022-10-12T13:46:03.981Z,101767.59
2022-10-12T13:48:58.103Z,101764.72
2022-10-12T13:51:26.837Z,101757.66
2022-10-12T13:53:55.065Z,101756.66
2022-10-12T13:56:27.193Z,101755.72
2022-10-12T13:59:00.128Z,101753.09
2022-10-12T14:01:30.278Z,101758.44
2022-10-12T14:04:08.290Z,101748.03
2022-10-12T14:06:38.388Z,101745.56
2022-10-12T14:09:10.690Z,101749.94
2022-10-12T14:11:39.992Z,101739.34
2022-10-12T14:14:16.344Z,101742.00
2022-10-12T14:16:44.533Z,101735.69
2022-10-12T14:19:22.154Z,101735.47
2022-10-12T14:21:50.734Z,101735.47
2022-10-12T14:24:20.504Z,101735.38
2022-10-12T14:26:55.255Z,101731.06
2022-10-12T14:29:31.941Z,101726.56
2022-10-12T14:32:01.782Z,101727.53
2022-10-12T14:34:39.013Z,101725.78
2022-10-12T14:37:30.390Z,101719.56
2022-10-12T14:40:02.641Z,101725.91
2022-10-12T14:42:34.065Z,101726.84
2022-10-12T14:45:03.211Z,101717.16
2022-10-12T14:47:33.763Z,101714.59
2022-10-12T14:50:08.273Z,101719.00
2022-10-12T14:52:40.715Z,101724.41
2022-10-12T14:55:14.815Z,101719.91
2022-10-12T14:57:45.517Z,101704.00
2022-10-12T15:00:16.310Z,101714.66
2022-10-12T15:02:46.089Z,101708.38
2022-10-12T15:05:18.575Z,101707.47
2022-10-12T15:07:49.781Z,101706.66
2022-10-12T15:10:22.610Z,101705.75
2022-10-12T15:12:52.716Z,101699.47
2022-10-12T15:15:39.579Z,101702.16
2022-10-12T15:18:07.658Z,101696.81
2022-10-12T15:20:37.369Z,101682.47
2022-10-12T15:23:05.894Z,101677.13
2022-10-12T15:25:41.033Z,101679.97
2022-10-12T15:28:09.073Z,101672.03
2022-10-12T15:30:52.155Z,101669.28
2022-10-12T15:33:26.267Z,101671.88
2022-10-12T15:35:58.987Z,101678.97
2022-10-12T15:38:45.375Z,101677.22
2022-10-12T15:41:18.891Z,101670.13
2022-10-12T15:43:46.944Z,101663.19
2022-10-12T15:46:14.896Z,101661.63
2022-10-12T15:48:43.966Z,101663.47
2022-10-12T15:51:22.889Z,101654.78
2022-10-12T15:53:51.724Z,101652.28
2022-10-12T15:56:21.227Z,101651.41
2022-10-12T15:58:51.314Z,101650.91
2022-10-12T16:01:21.486Z,101648.38
2022-10-12T16:03:49.935Z,101658.41
2022-10-12T16:06:19.518Z,101647.97
2022-10-12T16:08:47.576Z,101654.38
2022-10-12T16:11:17.304Z,101651.03
2022-10-12T16:13:56.333Z,101643.28
2022-10-12T16:16:25.261Z,101646.16
2022-10-12T16:18:54.052Z,101642.78
2022-10-12T16:21:23.586Z,101648.28
2022-10-12T16:23:51.827Z,101646.69
2022-10-12T16:26:20.029Z,101638.91
2022-10-12T16:28:48.258Z,101643.47
2022-10-12T16:31:18.276Z,101640.06
2022-10-12T16:33:46.866Z,101648.16
2022-10-12T16:36:16.581Z,101645.63
2022-10-12T16:38:46.654Z,101643.91
2022-10-12T16:41:16.619Z,101644.03
2022-10-12T16:43:45.391Z,101640.63
2022-10-12T16:46:13.362Z,101648.63
2022-10-12T16:48:41.553Z,101646.09
2022-10-12T16:51:11.219Z,101642.63
2022-10-12T16:53:42.266Z,101645.41
2022-10-12T16:56:11.865Z,101651.69
2022-10-12T16:58:40.199Z,101642.03
2022-10-12T17:01:12.718Z,101650.97
2022-10-12T17:03:41.147Z,101650.25
2022-10-12T17:06:10.124Z,101661.84
2022-10-12T17:08:39.317Z,101652.19
2022-10-12T17:11:09.013Z,101657.53
2022-10-12T17:13:39.798Z,101656.69
2022-10-12T17:16:34.878Z,101663.91
2022-10-12T17:19:03.469Z,101654.22
2022-10-12T17:21:32.872Z,101658.72
2022-10-12T17:24:01.628Z,101651.66
2022-10-12T17:26:30.143Z,101654.34
2022-10-12T17:28:59.813Z,101650.84
2022-10-12T17:31:28.755Z,101650.03
2022-10-12T17:33:57.023Z,101644.78
2022-10-12T17:36:28.223Z,101648.34
2022-10-12T17:38:57.781Z,101645.72
2022-10-12T17:41:25.944Z,101646.66
2022-10-12T17:43:54.020Z,101644.06
2022-10-12T17:46:23.333Z,101652.94
2022-10-12T17:48:51.452Z,101649.44
2022-10-12T17:51:19.526Z,101648.53
2022-10-12T17:53:47.656Z,101645.88
2022-10-12T17:56:19.163Z,101640.63
2022-10-12T17:58:47.274Z,101651.28
2022-10-12T18:01:17.057Z,101644.25
2022-10-12T18:03:47.737Z,101636.31
2022-10-12T18:06:17.590Z,101640.72
2022-10-12T18:08:46.077Z,101640.78
2022-10-12T18:11:14.841Z,101641.66
2022-10-12T18:13:50.656Z,101645.22
2022-10-12T18:16:20.858Z,101655.84
2022-10-12T18:18:52.496Z,101633.81
2022-10-12T18:21:23.924Z,101639.09
2022-10-12T18:23:53.743Z,101633.84
2022-10-12T18:26:22.895Z,101639.16
2022-10-12T18:28:52.398Z,101634.75
2022-10-12T18:31:22.664Z,101636.59
2022-10-12T18:33:53.417Z,101644.56
2022-10-12T18:36:21.981Z,101638.38
2022-10-12T18:38:49.967Z,101643.72
2022-10-12T18:41:22.393Z,101648.16
2022-10-12T18:43:55.075Z,101652.56
2022-10-12T18:46:23.065Z,101654.34
2022-10-12T18:48:52.836Z,101654.34
2022-10-12T18:51:24.989Z,101655.22
2022-10-12T18:53:52.977Z,101649.91
2022-10-12T18:56:21.354Z,101649.06
2022-10-12T18:58:49.505Z,101642.88
2022-10-12T19:01:20.218Z,101634.91
2022-10-12T19:03:49.910Z,101634.94
2022-10-12T19:06:21.917Z,101638.47
2022-10-12T19:08:51.017Z,101642.03
2022-10-12T19:11:21.093Z,101641.09
2022-10-12T19:13:54.172Z,101645.53
2022-10-12T19:16:24.824Z,101641.97
2022-10-12T19:18:57.769Z,101634.84
2022-10-12T19:21:27.461Z,101643.69
2022-10-12T19:23:55.840Z,101641.03
2022-10-12T19:26:25.964Z,101636.63
2022-10-12T19:28:56.129Z,101628.66
2022-10-12T19:31:26.785Z,101634.00
2022-10-12T19:33:56.780Z,101633.16
2022-10-12T19:36:25.475Z,101635.84
2022-10-12T19:38:56.241Z,101634.97
2022-10-12T19:41:24.665Z,101634.03
2022-10-12T19:43:53.201Z,101626.13
2022-10-12T19:46:21.773Z,101627.81
2022-10-12T19:48:51.019Z,101620.72
2022-10-12T19:51:20.794Z,101619.78
2022-10-12T19:53:49.322Z,101615.41
2022-10-12T19:56:20.951Z,101610.09
2022-10-12T19:58:50.109Z,101601.31
2022-10-12T20:01:23.054Z,101608.44
2022-10-12T20:03:51.600Z,101605.81
2022-10-12T20:06:20.702Z,101601.44
2022-10-12T20:08:49.175Z,101599.63
2022-10-12T20:11:24.698Z,101600.53
2022-10-12T20:13:56.339Z,101607.59
2022-10-12T20:16:25.006Z,101614.69
2022-10-12T20:18:54.307Z,101609.38
2022-10-12T20:21:23.841Z,101615.56
2022-10-12T20:23:52.641Z,101620.88
2022-10-12T20:26:24.386Z,101616.41
2022-10-12T20:28:54.020Z,101617.28
2022-10-12T20:31:24.568Z,101618.13
2022-10-12T20:33:53.875Z,101611.03
2022-10-12T20:36:23.824Z,101604.88
2022-10-12T20:38:52.406Z,101592.56
2022-10-12T20:41:25.506Z,101599.63
2022-10-12T20:43:55.960Z,101585.47
2022-10-12T20:46:24.426Z,101589.03
2022-10-12T20:48:58.018Z,101592.63
2022-10-12T20:51:28.891Z,101581.19
2022-10-12T20:53:59.133Z,101596.25
2022-10-12T20:56:29.269Z,101585.59
2022-10-12T20:58:57.369Z,101596.25
2022-10-12T21:01:28.540Z,101590.91
2022-10-12T21:03:57.236Z,101583.00
2022-10-12T21:06:25.939Z,101587.41
2022-10-12T21:08:55.965Z,101578.63
2022-10-12T21:11:24.654Z,101579.53
2022-10-12T21:13:54.294Z,101587.47
2022-10-12T21:16:22.138Z,101589.25
2022-10-12T21:18:50.345Z,101584.84
2022-10-12T21:21:19.825Z,101584.88
2022-10-12T21:23:53.971Z,101576.97
2022-10-12T21:26:23.529Z,101576.97
2022-10-12T21:28:53.248Z,101576.09
2022-10-12T21:31:22.034Z,101572.66
2022-10-12T21:33:50.220Z,101576.19
2022-10-12T21:36:21.307Z,101567.38
2022-10-12T21:38:50.528Z,101568.25
2022-10-12T21:41:19.979Z,101562.09
2022-10-12T21:43:49.484Z,101565.63
2022-10-12T21:46:21.515Z,101562.13
2022-10-12T21:48:49.888Z,101570.06
2022-10-12T21:51:19.112Z,101576.25
2022-10-12T21:53:47.606Z,101578.03
2022-10-12T21:56:18.811Z,101572.72
2022-10-12T21:58:47.440Z,101576.22
2022-10-12T22:01:16.889Z,101572.66
2022-10-12T22:03:48.070Z,101569.13
2022-10-12T22:06:18.095Z,101569.13
2022-10-12T22:08:51.361Z,101562.00
2022-10-12T22:11:23.573Z,101560.25
2022-10-12T22:13:52.195Z,101565.50
2022-10-12T22:16:20.430Z,101569.06
2022-10-12T22:18:49.857Z,101569.00
2022-10-12T22:21:20.117Z,101576.03
2022-10-12T22:23:48.105Z,101568.94
2022-10-12T22:26:18.620Z,101566.28
2022-10-12T22:28:54.214Z,101560.94
2022-10-12T22:31:24.529Z,101560.06
2022-10-12T22:33:54.439Z,101559.19
2022-10-12T22:36:22.466Z,101560.94
2022-10-12T22:38:50.436Z,101552.13
2022-10-12T22:41:20.584Z,101553.03
2022-10-12T22:43:48.727Z,101555.72
2022-10-12T22:46:17.190Z,101551.34
2022-10-12T22:48:45.599Z,101552.22
2022-10-12T22:51:17.365Z,101555.81
2022-10-12T22:53:45.237Z,101549.66
2022-10-12T22:56:16.683Z,101544.38
2022-10-12T22:58:45.367Z,101551.44
2022-10-12T23:01:17.450Z,101549.66
2022-10-12T23:03:45.963Z,101546.13
2022-10-12T23:06:18.058Z,101547.00
2022-10-12T23:08:47.117Z,101540.81
2022-10-12T23:11:17.931Z,101536.38
2022-10-12T23:13:46.267Z,101540.75
2022-10-12T23:16:17.512Z,101537.25
2022-10-12T23:18:46.098Z,101547.00
2022-10-12T23:21:17.969Z,101553.19
2022-10-12T23:23:46.816Z,101553.22
2022-10-12T23:26:17.133Z,101549.72
2022-10-12T23:28:45.475Z,101544.47
2022-10-12T23:31:18.848Z,101541.84
2022-10-12T23:33:47.076Z,101543.63
2022-10-12T23:36:18.232Z,101540.97
2022-10-12T23:38:46.757Z,101533.91
2022-10-12T23:41:14.951Z,101530.41
2022-10-12T23:43:43.281Z,101529.53
2022-10-12T23:46:12.503Z,101539.25
2022-10-12T23:48:40.866Z,101534.84
2022-10-12T23:51:09.624Z,101533.06
2022-10-12T23:53:39.605Z,101526.00
2022-10-12T23:56:08.169Z,101528.66
2022-10-12T23:58:36.222Z,101530.44
